createdAt,value
2022-08-30T00:00:41.472Z,0
2022-08-30T00:02:21.238Z,0
2022-08-30T00:04:01.003Z,0
2022-08-30T00:05:40.755Z,0
2022-08-30T00:07:20.511Z,0
2022-08-30T00:10:40.039Z,0
2022-08-30T00:12:19.823Z,0
2022-08-30T00:13:59.577Z,0
2022-08-30T00:15:39.347Z,0
2022-08-30T00:17:19.097Z,0
2022-08-30T00:18:58.872Z,0
2022-08-30T00:20:38.642Z,0
2022-08-30T00:22:18.394Z,0
2022-08-30T00:23:58.152Z,0
2022-08-30T00:25:37.931Z,0
2022-08-30T00:27:17.685Z,0
2022-08-30T00:28:57.465Z,0
2022-08-30T00:30:37.225Z,0
2022-08-30T00:33:56.742Z,0
2022-08-30T00:35:36.512Z,0
2022-08-30T00:37:16.275Z,0
2022-08-30T00:40:35.802Z,0
2022-08-30T00:43:55.328Z,0
2022-08-30T00:45:35.088Z,0
2022-08-30T00:47:14.889Z,0
2022-08-30T00:48:54.617Z,0
2022-08-30T00:50:34.380Z,0
2022-08-30T00:53:53.913Z,0
2022-08-30T00:55:33.681Z,0
2022-08-30T00:57:13.443Z,0
2022-08-30T00:58:53.213Z,0
2022-08-30T01:00:32.972Z,0
2022-08-30T01:02:12.761Z,0
2022-08-30T01:03:52.501Z,0
2022-08-30T01:07:12.026Z,0
2022-08-30T01:10:31.560Z,0
2022-08-30T01:12:11.308Z,0
2022-08-30T01:13:51.088Z,0
2022-08-30T01:15:30.862Z,0
2022-08-30T01:17:10.597Z,0
2022-08-30T01:18:50.390Z,0
2022-08-30T01:20:30.139Z,0
2022-08-30T01:22:09.892Z,0
2022-08-30T01:23:49.672Z,0
2022-08-30T01:25:29.429Z,0
2022-08-30T01:27:09.198Z,0
2022-08-30T01:28:48.956Z,0
2022-08-30T01:30:28.714Z,0
2022-08-30T01:32:08.476Z,0
2022-08-30T01:33:48.239Z,0
2022-08-30T01:35:28.023Z,0
2022-08-30T01:37:07.769Z,0
2022-08-30T01:38:47.528Z,0
2022-08-30T01:40:27.315Z,0
2022-08-30T01:42:07.072Z,0
2022-08-30T01:43:46.831Z,0
2022-08-30T01:45:26.600Z,0
2022-08-30T01:47:06.366Z,0
2022-08-30T01:48:46.118Z,0
2022-08-30T01:50:25.876Z,0
2022-08-30T01:53:45.418Z,0
2022-08-30T01:55:25.185Z,0
2022-08-30T01:57:04.949Z,0
2022-08-30T01:58:44.701Z,0
2022-08-30T02:00:24.476Z,0
2022-08-30T02:02:04.230Z,0
2022-08-30T02:03:43.984Z,0
2022-08-30T02:05:23.753Z,0
2022-08-30T02:07:03.526Z,0
2022-08-30T02:08:43.284Z,0
2022-08-30T02:10:23.053Z,0
2022-08-30T02:13:42.576Z,0
2022-08-30T02:15:22.350Z,0
2022-08-30T02:17:02.119Z,0
2022-08-30T02:18:41.877Z,0
2022-08-30T02:20:21.635Z,0
2022-08-30T02:23:41.168Z,0
2022-08-30T02:25:20.928Z,0
2022-08-30T02:27:00.690Z,0
2022-08-30T02:28:40.460Z,0
2022-08-30T02:30:20.213Z,0
2022-08-30T02:32:00.001Z,0
2022-08-30T02:33:39.754Z,0
2022-08-30T02:35:19.513Z,0
2022-08-30T02:36:59.277Z,0
2022-08-30T02:38:39.033Z,0
2022-08-30T02:40:18.801Z,0
2022-08-30T02:41:58.575Z,0
2022-08-30T02:43:38.331Z,0
2022-08-30T02:45:18.092Z,0
2022-08-30T02:46:57.862Z,0
2022-08-30T02:48:37.617Z,0
2022-08-30T02:50:17.378Z,0
2022-08-30T02:51:57.143Z,0
2022-08-30T02:53:36.916Z,0
2022-08-30T02:55:16.670Z,0
2022-08-30T02:56:56.443Z,0
2022-08-30T02:58:36.197Z,0
2022-08-30T03:00:15.971Z,0
2022-08-30T03:01:55.736Z,0
2022-08-30T03:03:35.494Z,0
2022-08-30T03:05:15.264Z,0
2022-08-30T03:06:55.038Z,0
2022-08-30T03:08:34.786Z,0
2022-08-30T03:10:14.546Z,0
2022-08-30T03:11:54.317Z,0
2022-08-30T03:13:34.087Z,0
2022-08-30T03:15:13.885Z,0
2022-08-30T03:16:53.618Z,0
2022-08-30T03:18:33.373Z,0
2022-08-30T03:20:13.146Z,0
2022-08-30T03:23:32.675Z,0
2022-08-30T03:25:12.433Z,0
2022-08-30T03:26:52.205Z,0
2022-08-30T03:28:31.966Z,0
2022-08-30T03:30:11.717Z,0
2022-08-30T03:31:51.481Z,0
2022-08-30T03:33:31.240Z,0
2022-08-30T03:35:11.022Z,0
2022-08-30T03:36:50.774Z,0
2022-08-30T03:38:30.550Z,0
2022-08-30T03:40:10.301Z,0
2022-08-30T03:43:29.823Z,0
2022-08-30T03:45:09.591Z,0
2022-08-30T03:46:49.364Z,0
2022-08-30T03:48:29.126Z,0
2022-08-30T03:50:08.888Z,0
2022-08-30T03:51:48.658Z,0
2022-08-30T03:53:28.424Z,0
2022-08-30T03:55:08.164Z,0
2022-08-30T03:56:47.932Z,0
2022-08-30T03:58:27.705Z,0
2022-08-30T04:00:07.464Z,0
2022-08-30T04:01:47.222Z,0
2022-08-30T04:03:27.003Z,0
2022-08-30T04:05:06.753Z,0
2022-08-30T04:06:46.527Z,0
2022-08-30T04:08:26.295Z,0
2022-08-30T04:10:06.059Z,0
2022-08-30T04:11:45.824Z,0
2022-08-30T04:13:25.575Z,0
2022-08-30T04:15:05.347Z,0
2022-08-30T04:16:45.113Z,0
2022-08-30T04:18:24.869Z,0
2022-08-30T04:20:04.634Z,0
2022-08-30T04:21:44.397Z,0
2022-08-30T04:23:24.168Z,0
2022-08-30T04:25:03.931Z,0
2022-08-30T04:26:43.689Z,0.38
2022-08-30T04:28:23.453Z,0.38
2022-08-30T04:30:03.275Z,0
2022-08-30T04:31:42.988Z,0.38
2022-08-30T04:33:22.739Z,0.51
2022-08-30T04:35:02.523Z,0
2022-08-30T04:36:42.279Z,0.12
2022-08-30T04:38:22.043Z,0.25
2022-08-30T04:40:01.806Z,0.38
2022-08-30T04:41:41.569Z,0
2022-08-30T04:43:21.339Z,0.25
2022-08-30T04:45:01.099Z,0.38
2022-08-30T04:46:40.857Z,0.12
2022-08-30T04:48:20.617Z,0.51
2022-08-30T04:50:00.379Z,0.51
2022-08-30T04:51:40.156Z,0.25
2022-08-30T04:53:19.919Z,0.51
2022-08-30T04:54:59.669Z,0.38
2022-08-30T04:56:39.441Z,0.12
2022-08-30T04:58:19.208Z,0.12
2022-08-30T04:59:58.987Z,0.38
2022-08-30T05:01:38.727Z,0.25
2022-08-30T05:03:18.495Z,0.64
2022-08-30T05:04:58.260Z,0.64
2022-08-30T05:06:38.023Z,0.64
2022-08-30T05:08:17.793Z,0.38
2022-08-30T05:09:57.560Z,0.64
2022-08-30T05:11:37.310Z,0.64
2022-08-30T05:13:17.090Z,0.78
2022-08-30T05:14:56.836Z,0.77
2022-08-30T05:16:36.605Z,0.52
2022-08-30T05:18:16.392Z,0.78
2022-08-30T05:19:56.143Z,0.65
2022-08-30T05:21:35.895Z,0.78
2022-08-30T05:23:15.668Z,0.91
2022-08-30T05:24:55.426Z,1.04
2022-08-30T05:26:35.201Z,0.91
2022-08-30T05:28:14.962Z,0.78
2022-08-30T05:29:54.714Z,1.04
2022-08-30T05:31:34.472Z,1.32
2022-08-30T05:33:14.249Z,1.59
2022-08-30T05:34:54.004Z,1.33
2022-08-30T05:36:33.770Z,1.87
2022-08-30T05:38:13.539Z,2.15
2022-08-30T05:39:53.302Z,2.16
2022-08-30T05:41:33.069Z,2.04
2022-08-30T05:43:12.823Z,2.04
2022-08-30T05:44:52.591Z,2.18
2022-08-30T05:46:32.366Z,1.91
2022-08-30T05:48:12.124Z,1.91
2022-08-30T05:49:51.892Z,2.33
2022-08-30T05:51:31.655Z,2.33
2022-08-30T05:53:11.410Z,2.33
2022-08-30T05:54:51.175Z,2.61
2022-08-30T05:56:30.946Z,2.61
2022-08-30T05:58:10.707Z,2.75
2022-08-30T05:59:50.481Z,2.9
2022-08-30T06:01:30.225Z,3.45
2022-08-30T06:03:10.001Z,3.61
2022-08-30T06:04:49.753Z,4.17
2022-08-30T06:06:29.519Z,4.33
2022-08-30T06:08:09.286Z,4.46
2022-08-30T06:09:49.062Z,4.46
2022-08-30T06:11:28.821Z,4.46
2022-08-30T06:13:08.578Z,4.62
2022-08-30T06:14:48.348Z,5.33
2022-08-30T06:16:28.107Z,5.21
2022-08-30T06:18:07.895Z,5.65
2022-08-30T06:19:47.642Z,5.37
2022-08-30T06:23:07.164Z,4.92
2022-08-30T06:24:46.936Z,5.08
2022-08-30T06:26:26.685Z,5.23
2022-08-30T06:28:06.466Z,5.39
2022-08-30T06:29:46.229Z,5.69
2022-08-30T06:31:25.983Z,5.56
2022-08-30T06:33:05.744Z,8.76
2022-08-30T06:34:45.543Z,7.72
2022-08-30T06:36:25.301Z,7.56
2022-08-30T06:38:05.039Z,7.26
2022-08-30T06:39:44.814Z,7.26
2022-08-30T06:41:24.589Z,7.12
2022-08-30T06:43:04.337Z,6.66
2022-08-30T06:44:44.107Z,6.66
2022-08-30T06:46:23.868Z,6.8
2022-08-30T06:48:03.622Z,6.23
2022-08-30T06:49:43.389Z,6.52
2022-08-30T06:53:02.921Z,6.06
2022-08-30T06:54:42.684Z,6.07
2022-08-30T06:56:22.450Z,5.76
2022-08-30T06:58:02.212Z,5.76
2022-08-30T06:59:41.986Z,5.75
2022-08-30T07:01:21.748Z,5.59
2022-08-30T07:03:01.512Z,5.46
2022-08-30T07:04:41.276Z,5.45
2022-08-30T07:06:21.027Z,5.32
2022-08-30T07:08:00.831Z,5.01
2022-08-30T07:09:40.582Z,5.01
2022-08-30T07:11:20.324Z,5.02
2022-08-30T07:13:00.096Z,4.87
2022-08-30T07:14:39.856Z,4.87
2022-08-30T07:16:19.615Z,4.87
2022-08-30T07:17:59.384Z,4.87
2022-08-30T07:19:39.151Z,4.73
2022-08-30T07:21:18.910Z,4.57
2022-08-30T07:22:58.691Z,4.56
2022-08-30T07:24:38.447Z,4.57
2022-08-30T07:26:18.195Z,4.44
2022-08-30T07:27:57.966Z,4.28
2022-08-30T07:29:37.727Z,4.42
2022-08-30T07:31:17.490Z,4.42
2022-08-30T07:32:57.260Z,4.28
2022-08-30T07:34:37.027Z,4.28
2022-08-30T07:36:16.789Z,4.28
2022-08-30T07:37:56.549Z,4.13
2022-08-30T07:39:36.320Z,4.13
2022-08-30T07:41:16.080Z,4.14
2022-08-30T07:42:55.848Z,4.14
2022-08-30T07:44:35.615Z,3.98
2022-08-30T07:46:15.365Z,3.99
2022-08-30T07:47:55.128Z,3.99
2022-08-30T07:49:34.900Z,3.83
2022-08-30T07:51:14.658Z,3.83
2022-08-30T07:52:54.427Z,3.83
2022-08-30T07:54:34.188Z,3.82
2022-08-30T07:56:13.951Z,3.69
2022-08-30T07:57:53.716Z,3.67
2022-08-30T07:59:33.485Z,3.68
2022-08-30T08:01:13.248Z,3.53
2022-08-30T08:02:53.008Z,3.54
2022-08-30T08:04:32.774Z,3.52
2022-08-30T08:06:12.534Z,3.53
2022-08-30T08:07:52.295Z,3.4
2022-08-30T08:09:32.063Z,3.53
2022-08-30T08:11:11.835Z,3.4
2022-08-30T08:12:51.589Z,3.54
2022-08-30T08:14:31.376Z,3.39
2022-08-30T08:16:11.110Z,3.24
2022-08-30T08:17:50.892Z,3.23
2022-08-30T08:19:30.650Z,3.24
2022-08-30T08:21:10.403Z,3.09
2022-08-30T08:22:50.184Z,3.09
2022-08-30T08:24:29.943Z,3.09
2022-08-30T08:26:09.701Z,3.08
2022-08-30T08:29:29.234Z,3.09
2022-08-30T08:31:09.000Z,3.1
2022-08-30T08:34:28.516Z,0.28
2022-08-30T08:36:08.299Z,0.41
2022-08-30T08:37:48.045Z,0.27
2022-08-30T08:39:27.811Z,1.93
2022-08-30T08:41:07.584Z,2.23
2022-08-30T08:42:47.345Z,2.24
2022-08-30T08:44:27.102Z,1.39
2022-08-30T08:46:06.873Z,1.53
2022-08-30T08:47:46.640Z,1.53
2022-08-30T08:49:26.397Z,1.53
2022-08-30T08:51:06.171Z,1.53
2022-08-30T08:52:45.935Z,1.39
2022-08-30T08:54:25.683Z,1.53
2022-08-30T08:56:05.454Z,1.53
2022-08-30T08:57:45.251Z,1.53
2022-08-30T08:59:24.995Z,1.53
2022-08-30T09:02:44.525Z,1.53
2022-08-30T09:04:24.293Z,1.53
2022-08-30T09:06:04.051Z,1.53
2022-08-30T09:07:43.793Z,1.68
2022-08-30T09:09:23.577Z,1.39
2022-08-30T09:11:03.334Z,1.39
2022-08-30T09:12:43.439Z,1.39
2022-08-30T09:14:22.855Z,1.39
2022-08-30T09:16:02.677Z,1.25
2022-08-30T09:17:42.395Z,1.25
2022-08-30T09:19:22.174Z,1.39
2022-08-30T09:21:01.962Z,1.39
2022-08-30T09:22:41.712Z,1.39
2022-08-30T09:24:21.501Z,1.39
2022-08-30T09:26:01.250Z,1.53
2022-08-30T09:27:41.000Z,1.39
2022-08-30T09:29:20.753Z,1.39
2022-08-30T09:31:00.532Z,1.53
2022-08-30T09:32:40.303Z,1.52
2022-08-30T09:34:20.028Z,1.39
2022-08-30T09:35:59.797Z,1.39
2022-08-30T09:37:39.597Z,1.53
2022-08-30T09:39:19.336Z,1.53
2022-08-30T09:40:59.125Z,1.53
2022-08-30T09:42:38.897Z,1.53
2022-08-30T09:44:18.672Z,1.53
2022-08-30T09:45:58.395Z,1.53
2022-08-30T09:47:38.172Z,1.53
2022-08-30T09:49:17.953Z,1.53
2022-08-30T09:50:57.680Z,1.53
2022-08-30T09:52:37.440Z,1.39
2022-08-30T09:54:17.229Z,1.39
2022-08-30T09:55:56.990Z,1.39
2022-08-30T09:57:36.749Z,1.39
2022-08-30T09:59:16.531Z,1.53
2022-08-30T10:00:56.259Z,1.53
2022-08-30T10:02:36.020Z,1.53
2022-08-30T10:04:15.818Z,1.53
2022-08-30T10:05:55.573Z,1.53
2022-08-30T10:07:35.308Z,1.39
2022-08-30T10:09:15.090Z,1.39
2022-08-30T10:10:54.864Z,1.39
2022-08-30T10:12:34.607Z,1.39
2022-08-30T10:14:14.373Z,1.39
2022-08-30T10:15:54.154Z,1.39
2022-08-30T10:17:33.947Z,1.39
2022-08-30T10:19:13.699Z,1.39
2022-08-30T10:20:53.477Z,1.39
2022-08-30T10:22:33.181Z,1.39
2022-08-30T10:24:12.994Z,1.25
2022-08-30T10:25:52.762Z,1.39
2022-08-30T10:27:32.503Z,1.39
2022-08-30T10:29:12.264Z,1.39
2022-08-30T10:30:52.010Z,1.39
2022-08-30T10:32:31.805Z,1.39
2022-08-30T10:34:11.581Z,1.39
2022-08-30T10:35:51.285Z,1.39
2022-08-30T10:39:10.828Z,1.39
2022-08-30T10:40:50.641Z,1.25
2022-08-30T10:42:30.384Z,1.39
2022-08-30T10:44:10.141Z,1.25
2022-08-30T10:45:49.887Z,1.25
2022-08-30T10:47:29.679Z,1.24
2022-08-30T10:49:09.461Z,1.38
2022-08-30T10:52:28.986Z,1.38
2022-08-30T10:54:08.708Z,1.38
2022-08-30T10:55:48.529Z,1.38
2022-08-30T10:57:28.278Z,1.24
2022-08-30T10:59:07.999Z,1.24
2022-08-30T11:00:47.750Z,1.38
2022-08-30T11:02:27.577Z,1.38
2022-08-30T11:04:07.281Z,1.52
2022-08-30T11:05:47.079Z,1.39
2022-08-30T11:07:26.830Z,1.39
2022-08-30T11:09:06.606Z,1.25
2022-08-30T11:12:26.134Z,1.24
2022-08-30T11:14:05.869Z,1.24
2022-08-30T11:15:45.637Z,1.38
2022-08-30T11:17:25.402Z,1.24
2022-08-30T11:19:05.199Z,1.38
2022-08-30T11:20:44.960Z,1.53
2022-08-30T11:22:24.733Z,1.39
2022-08-30T11:24:04.481Z,1.39
2022-08-30T11:25:44.225Z,1.38
2022-08-30T11:27:24.028Z,1.39
2022-08-30T11:29:03.755Z,1.38
2022-08-30T11:30:43.505Z,1.39
2022-08-30T11:32:23.320Z,1.39
2022-08-30T11:34:03.049Z,1.39
2022-08-30T11:35:42.847Z,1.39
2022-08-30T11:37:22.568Z,1.25
2022-08-30T11:39:02.367Z,1.38
2022-08-30T11:40:42.106Z,1.25
2022-08-30T11:42:21.888Z,1.39
2022-08-30T11:44:01.642Z,1.24
2022-08-30T11:45:41.435Z,1.24
2022-08-30T11:47:21.211Z,1.24
2022-08-30T11:49:00.948Z,1.24
2022-08-30T11:50:40.720Z,1.38
2022-08-30T11:52:20.456Z,1.38
2022-08-30T11:54:00.239Z,1.39
2022-08-30T11:55:39.996Z,1.24
2022-08-30T11:57:19.784Z,1.24
2022-08-30T12:00:39.307Z,1.1
2022-08-30T12:02:19.059Z,1.1
2022-08-30T12:03:58.844Z,1.38
2022-08-30T12:05:38.571Z,1.24
2022-08-30T12:07:18.315Z,1.24
2022-08-30T12:08:58.114Z,1.24
2022-08-30T12:10:37.861Z,1.1
2022-08-30T12:12:17.646Z,1.24
2022-08-30T12:13:57.418Z,1.24
2022-08-30T12:15:37.158Z,1.38
2022-08-30T12:17:16.942Z,1.38
2022-08-30T12:18:56.683Z,1.38
2022-08-30T12:20:36.447Z,1.38
2022-08-30T12:22:16.223Z,1.25
2022-08-30T12:23:55.974Z,1.11
2022-08-30T12:25:35.750Z,1.24
2022-08-30T12:27:15.539Z,1.1
2022-08-30T12:28:55.262Z,1.1
2022-08-30T12:30:35.012Z,1.52
2022-08-30T12:33:54.597Z,1.24
2022-08-30T12:35:34.345Z,1.24
2022-08-30T12:38:53.846Z,1.38
2022-08-30T12:40:33.651Z,1.24
2022-08-30T12:42:13.380Z,1.1
2022-08-30T12:43:53.161Z,1.1
2022-08-30T12:45:32.910Z,1.51
2022-08-30T12:47:12.685Z,1.52
2022-08-30T12:48:52.463Z,1.24
2022-08-30T12:50:32.215Z,1.24
2022-08-30T12:52:11.968Z,1.24
2022-08-30T12:53:51.749Z,1.24
2022-08-30T12:55:31.532Z,1.38
2022-08-30T12:57:11.259Z,1.24
2022-08-30T12:58:51.036Z,1.24
2022-08-30T13:00:30.820Z,1.24
2022-08-30T13:02:10.557Z,1.38
2022-08-30T13:03:50.327Z,1.38
2022-08-30T13:05:30.134Z,1.24
2022-08-30T13:07:09.852Z,1.24
2022-08-30T13:08:49.603Z,1.24
2022-08-30T13:10:29.413Z,1.38
2022-08-30T13:12:09.133Z,1.11
2022-08-30T13:13:48.903Z,1.1
2022-08-30T13:15:28.688Z,1.24
2022-08-30T13:17:08.432Z,1.24
2022-08-30T13:18:48.187Z,1.24
2022-08-30T13:20:27.968Z,1.24
2022-08-30T13:22:07.738Z,1.24
2022-08-30T13:23:47.492Z,1.24
2022-08-30T13:25:27.275Z,1.24
2022-08-30T13:27:07.014Z,1.24
2022-08-30T13:28:46.780Z,1.24
2022-08-30T13:30:26.532Z,1.24
2022-08-30T13:32:06.301Z,1.24
2022-08-30T13:33:46.058Z,1.24
2022-08-30T13:35:25.839Z,1.24
2022-08-30T13:37:05.589Z,1.1
2022-08-30T13:38:45.356Z,1.38
2022-08-30T13:40:25.146Z,1.23
2022-08-30T13:42:04.882Z,1.24
2022-08-30T13:43:44.657Z,1.24
2022-08-30T13:45:24.421Z,1.24
2022-08-30T13:47:04.161Z,1.24
2022-08-30T13:48:43.927Z,1.24
2022-08-30T13:50:23.696Z,1.38
2022-08-30T13:52:03.462Z,1.23
2022-08-30T13:53:43.222Z,1.24
2022-08-30T13:55:22.994Z,1.23
2022-08-30T13:57:02.766Z,1.39
2022-08-30T13:58:42.522Z,1.23
2022-08-30T14:00:22.299Z,1.24
2022-08-30T14:02:02.056Z,1.1
2022-08-30T14:03:41.820Z,1.1
2022-08-30T14:05:21.582Z,1.24
2022-08-30T14:07:01.345Z,1.24
2022-08-30T14:08:41.105Z,1.23
2022-08-30T14:10:20.869Z,1.24
2022-08-30T14:12:00.631Z,1.09
2022-08-30T14:15:20.165Z,1.23
2022-08-30T14:16:59.934Z,1.23
2022-08-30T14:18:39.699Z,1.23
2022-08-30T14:20:19.459Z,1.23
2022-08-30T14:21:59.208Z,1.23
2022-08-30T14:23:38.993Z,1.24
2022-08-30T14:25:18.743Z,1.23
2022-08-30T14:26:58.524Z,1.38
2022-08-30T14:28:38.286Z,1.52
2022-08-30T14:30:18.046Z,1.37
2022-08-30T14:31:57.802Z,1.52
2022-08-30T14:33:37.585Z,1.24
2022-08-30T14:35:17.333Z,1.24
2022-08-30T14:38:36.862Z,1.24
2022-08-30T14:40:16.630Z,1.1
2022-08-30T14:41:56.395Z,0.96
2022-08-30T14:43:36.152Z,1.1
2022-08-30T14:45:15.910Z,1.24
2022-08-30T14:48:35.459Z,1.24
2022-08-30T14:50:15.217Z,1.37
2022-08-30T14:51:55.099Z,1.24
2022-08-30T14:53:34.740Z,1.24
2022-08-30T14:55:14.500Z,1.1
2022-08-30T14:56:54.264Z,1.24
2022-08-30T15:00:13.788Z,1.24
2022-08-30T15:01:53.602Z,1.38
2022-08-30T15:03:33.340Z,1.1
2022-08-30T15:05:13.104Z,1.24
2022-08-30T15:06:52.879Z,1.38
2022-08-30T15:08:32.605Z,1.24
2022-08-30T15:10:12.377Z,1.24
2022-08-30T15:11:52.139Z,1.24
2022-08-30T15:13:31.924Z,1.38
2022-08-30T15:15:11.684Z,1.39
2022-08-30T15:16:51.454Z,1.23
2022-08-30T15:18:31.203Z,1.39
2022-08-30T15:20:10.964Z,1.1
2022-08-30T15:21:50.719Z,1.1
2022-08-30T15:23:30.506Z,1.1
2022-08-30T15:25:10.269Z,1.1
2022-08-30T15:26:50.039Z,1.24
2022-08-30T15:28:29.820Z,1.38
2022-08-30T15:30:09.559Z,1.24
2022-08-30T15:31:49.314Z,1.24
2022-08-30T15:33:29.067Z,1.38
2022-08-30T15:35:08.828Z,1.24
2022-08-30T15:36:48.599Z,1.38
2022-08-30T15:38:28.373Z,1.1
2022-08-30T15:40:08.143Z,1.24
2022-08-30T15:41:47.913Z,1.38
2022-08-30T15:43:27.688Z,1.24
2022-08-30T15:45:07.433Z,1.1
2022-08-30T15:46:47.189Z,1.38
2022-08-30T15:48:26.961Z,1.38
2022-08-30T15:50:06.716Z,1.23
2022-08-30T15:51:46.481Z,1.11
2022-08-30T15:53:26.280Z,1.1
2022-08-30T15:55:06.009Z,1.24
2022-08-30T15:56:45.766Z,1.25
2022-08-30T15:58:25.558Z,1.1
2022-08-30T16:00:05.318Z,1.1
2022-08-30T16:01:45.071Z,1.1
2022-08-30T16:03:24.860Z,1.1
2022-08-30T16:05:04.586Z,1.1
2022-08-30T16:06:44.362Z,1.24
2022-08-30T16:08:24.126Z,1.25
2022-08-30T16:10:03.893Z,1.1
2022-08-30T16:11:43.652Z,1.24
2022-08-30T16:13:23.438Z,1.24
2022-08-30T16:15:03.195Z,1.24
2022-08-30T16:16:42.944Z,1.24
2022-08-30T16:18:22.727Z,1.1
2022-08-30T16:20:02.487Z,1.11
2022-08-30T16:21:42.283Z,1.25
2022-08-30T16:23:22.018Z,1.1
2022-08-30T16:25:01.756Z,1.38
2022-08-30T16:26:41.523Z,1.24
2022-08-30T16:28:21.290Z,1.24
2022-08-30T16:30:01.060Z,1.24
2022-08-30T16:31:40.821Z,1.38
2022-08-30T16:33:20.574Z,1.25
2022-08-30T16:35:00.362Z,1.24
2022-08-30T16:36:40.105Z,1.24
2022-08-30T16:38:19.872Z,1.11
2022-08-30T16:39:59.654Z,1.24
2022-08-30T16:41:39.440Z,1.25
2022-08-30T16:43:19.174Z,1.25
2022-08-30T16:44:58.943Z,1.1
2022-08-30T16:46:38.700Z,1.24
2022-08-30T16:48:18.466Z,1.1
2022-08-30T16:49:58.215Z,1.1
2022-08-30T16:51:37.990Z,1.24
2022-08-30T16:53:17.758Z,1.11
2022-08-30T16:54:57.516Z,1.1
2022-08-30T16:56:37.277Z,1.25
2022-08-30T16:58:17.053Z,1.24
2022-08-30T16:59:56.809Z,1.1
2022-08-30T17:01:36.564Z,1.11
2022-08-30T17:03:16.335Z,1.24
2022-08-30T17:04:56.090Z,0.97
2022-08-30T17:06:35.904Z,1.1
2022-08-30T17:08:15.655Z,1.11
2022-08-30T17:09:55.410Z,1.11
2022-08-30T17:11:35.164Z,1.11
2022-08-30T17:13:14.945Z,1.1
2022-08-30T17:14:54.728Z,1.1
2022-08-30T17:16:34.501Z,1.11
2022-08-30T17:18:14.209Z,1.1
2022-08-30T17:19:54.025Z,1.11
2022-08-30T17:21:33.785Z,1.1
2022-08-30T17:23:13.544Z,1.11
2022-08-30T17:24:53.291Z,1.1
2022-08-30T17:26:33.046Z,1.11
2022-08-30T17:28:12.804Z,1.1
2022-08-30T17:29:52.615Z,1.11
2022-08-30T17:31:32.322Z,1.1
2022-08-30T17:33:12.097Z,1.11
2022-08-30T17:34:51.861Z,1.11
2022-08-30T17:36:31.663Z,1.1
2022-08-30T17:38:11.429Z,1.1
2022-08-30T17:41:30.912Z,0.54
2022-08-30T17:43:10.675Z,0.4
2022-08-30T17:44:50.476Z,0.26
2022-08-30T17:46:30.237Z,0.4
2022-08-30T17:48:10.029Z,0.52
2022-08-30T17:51:29.517Z,0.26
2022-08-30T17:53:09.285Z,0
2022-08-30T17:54:49.036Z,0
2022-08-30T17:56:28.808Z,0
2022-08-30T17:58:08.556Z,0
2022-08-30T17:59:48.340Z,0
2022-08-30T18:01:28.104Z,0
2022-08-30T18:03:07.843Z,0
2022-08-30T18:04:47.645Z,0
2022-08-30T18:06:27.378Z,0
2022-08-30T18:08:07.148Z,0
2022-08-30T18:09:46.895Z,0
2022-08-30T18:11:26.697Z,0
2022-08-30T18:13:06.427Z,0
2022-08-30T18:14:46.192Z,0
2022-08-30T18:16:25.956Z,0
2022-08-30T18:18:06.446Z,0
2022-08-30T18:19:45.486Z,0
2022-08-30T18:21:25.265Z,0
2022-08-30T18:23:05.040Z,0
2022-08-30T18:24:44.835Z,0
2022-08-30T18:26:24.536Z,0
2022-08-30T18:28:04.345Z,0
2022-08-30T18:29:44.063Z,0
2022-08-30T18:31:23.871Z,0
2022-08-30T18:33:03.593Z,0
2022-08-30T18:34:43.385Z,0
2022-08-30T18:36:23.120Z,0
2022-08-30T18:38:02.894Z,0
2022-08-30T18:39:42.645Z,0
2022-08-30T18:41:22.410Z,0
2022-08-30T18:43:02.197Z,0
2022-08-30T18:44:41.944Z,0
2022-08-30T18:46:21.710Z,0
2022-08-30T18:48:01.472Z,0
2022-08-30T18:49:41.233Z,0
2022-08-30T18:51:21.027Z,0
2022-08-30T18:53:00.775Z,0
2022-08-30T18:54:40.551Z,0
2022-08-30T18:56:20.284Z,0
2022-08-30T18:58:00.850Z,0
2022-08-30T18:59:39.823Z,0
2022-08-30T19:01:19.615Z,0
2022-08-30T19:02:59.396Z,0
2022-08-30T19:04:39.116Z,0
2022-08-30T19:06:18.938Z,0
2022-08-30T19:07:58.643Z,0
2022-08-30T19:09:38.442Z,0
2022-08-30T19:11:18.183Z,0
2022-08-30T19:12:57.981Z,0
2022-08-30T19:14:37.712Z,0
2022-08-30T19:16:17.468Z,0
2022-08-30T19:17:57.225Z,0
2022-08-30T19:19:36.985Z,0
2022-08-30T19:21:16.759Z,0
2022-08-30T19:22:56.528Z,0
2022-08-30T19:24:36.280Z,0
2022-08-30T19:26:16.047Z,0
2022-08-30T19:27:55.818Z,0
2022-08-30T19:29:35.565Z,0
2022-08-30T19:31:15.365Z,0
2022-08-30T19:32:55.097Z,0
2022-08-30T19:34:34.872Z,0
2022-08-30T19:36:14.638Z,0
2022-08-30T19:37:54.387Z,0
2022-08-30T19:39:34.167Z,0
2022-08-30T19:41:13.919Z,0
2022-08-30T19:42:53.704Z,0
2022-08-30T19:44:33.444Z,0
2022-08-30T19:46:13.206Z,0
2022-08-30T19:47:52.994Z,0
2022-08-30T19:49:32.756Z,0
2022-08-30T19:51:12.520Z,0
2022-08-30T19:52:52.260Z,0
2022-08-30T19:54:32.028Z,0
2022-08-30T19:56:11.841Z,0
2022-08-30T19:57:51.553Z,0
2022-08-30T19:59:31.333Z,0
2022-08-30T20:01:11.107Z,0
2022-08-30T20:02:50.860Z,0
2022-08-30T20:04:30.603Z,0
2022-08-30T20:06:10.371Z,0
2022-08-30T20:07:50.152Z,0
2022-08-30T20:09:29.920Z,0
2022-08-30T20:11:09.700Z,0
2022-08-30T20:12:49.440Z,0
2022-08-30T20:14:29.202Z,0
2022-08-30T20:16:08.959Z,0
2022-08-30T20:17:48.758Z,0
2022-08-30T20:19:28.489Z,0
2022-08-30T20:21:08.264Z,0
2022-08-30T20:22:48.035Z,0
2022-08-30T20:24:27.790Z,0
2022-08-30T20:26:07.550Z,0
2022-08-30T20:27:47.309Z,0
2022-08-30T20:29:27.085Z,0
2022-08-30T20:31:06.850Z,0
2022-08-30T20:32:46.608Z,0
2022-08-30T20:34:26.373Z,0
2022-08-30T20:36:06.138Z,0
2022-08-30T20:37:45.903Z,0
2022-08-30T20:39:25.663Z,0
2022-08-30T20:41:05.429Z,0
2022-08-30T20:42:45.184Z,0
2022-08-30T20:44:24.957Z,0
2022-08-30T20:46:04.716Z,0
2022-08-30T20:47:44.477Z,0
2022-08-30T20:49:24.236Z,0
2022-08-30T20:51:04.020Z,0
2022-08-30T20:52:43.773Z,0
2022-08-30T20:54:23.536Z,0
2022-08-30T20:56:03.299Z,0
2022-08-30T20:57:43.060Z,0
2022-08-30T20:59:22.826Z,0
2022-08-30T21:01:02.589Z,0
2022-08-30T21:02:42.344Z,0
2022-08-30T21:04:22.110Z,0
2022-08-30T21:06:01.887Z,0
2022-08-30T21:07:41.649Z,0
2022-08-30T21:09:21.415Z,0
2022-08-30T21:11:01.183Z,0
2022-08-30T21:12:40.949Z,0
2022-08-30T21:14:20.690Z,0
2022-08-30T21:16:00.459Z,0
2022-08-30T21:17:40.222Z,0
2022-08-30T21:19:19.995Z,0
2022-08-30T21:20:59.750Z,0
2022-08-30T21:22:39.521Z,0
2022-08-30T21:24:19.285Z,0
2022-08-30T21:25:59.060Z,0
2022-08-30T21:27:38.812Z,0
2022-08-30T21:29:18.575Z,0
2022-08-30T21:30:58.337Z,0
2022-08-30T21:32:38.099Z,0
2022-08-30T21:34:17.880Z,0
2022-08-30T21:35:57.659Z,0
2022-08-30T21:37:37.392Z,0
2022-08-30T21:39:17.159Z,0
2022-08-30T21:40:56.921Z,0
2022-08-30T21:42:36.691Z,0
2022-08-30T21:44:16.461Z,0
2022-08-30T21:45:56.219Z,0
2022-08-30T21:47:35.992Z,0
2022-08-30T21:49:15.754Z,0
2022-08-30T21:50:55.506Z,0
2022-08-30T21:52:35.280Z,0
2022-08-30T21:54:15.051Z,0
2022-08-30T21:55:54.793Z,0
2022-08-30T21:57:34.564Z,0
2022-08-30T21:59:14.336Z,0
2022-08-30T22:00:54.091Z,0
2022-08-30T22:02:33.854Z,0
2022-08-30T22:04:13.626Z,0
2022-08-30T22:05:53.389Z,0
2022-08-30T22:07:33.144Z,0
2022-08-30T22:10:52.681Z,0
2022-08-30T22:12:32.433Z,0
2022-08-30T22:14:12.210Z,0
2022-08-30T22:15:51.978Z,0
2022-08-30T22:17:31.743Z,0
2022-08-30T22:19:11.493Z,0
2022-08-30T22:20:51.264Z,0
2022-08-30T22:22:31.013Z,0
2022-08-30T22:24:10.806Z,0
2022-08-30T22:25:50.545Z,0
2022-08-30T22:27:30.311Z,0
2022-08-30T22:29:10.074Z,0
2022-08-30T22:30:49.850Z,0
2022-08-30T22:32:29.610Z,0
2022-08-30T22:34:09.372Z,0
2022-08-30T22:35:49.140Z,0
2022-08-30T22:37:28.907Z,0
2022-08-30T22:39:08.652Z,0
2022-08-30T22:40:48.433Z,0
2022-08-30T22:42:28.195Z,0
2022-08-30T22:44:07.957Z,0
2022-08-30T22:45:47.721Z,0
2022-08-30T22:47:27.478Z,0
2022-08-30T22:49:07.242Z,0
2022-08-30T22:50:47.015Z,0
2022-08-30T22:52:26.767Z,0
2022-08-30T22:54:06.538Z,0
2022-08-30T22:55:46.302Z,0
2022-08-30T22:57:26.069Z,0
2022-08-30T22:59:05.834Z,0
2022-08-30T23:00:45.594Z,0
2022-08-30T23:02:25.356Z,0
2022-08-30T23:04:05.124Z,0
2022-08-30T23:05:44.892Z,0
2022-08-30T23:07:24.658Z,0
2022-08-30T23:10:44.173Z,0
2022-08-30T23:12:23.937Z,0
2022-08-30T23:14:03.700Z,0
2022-08-30T23:15:43.467Z,0
2022-08-30T23:17:23.231Z,0
2022-08-30T23:19:02.994Z,0
2022-08-30T23:20:42.770Z,0
2022-08-30T23:22:22.530Z,0
2022-08-30T23:24:02.283Z,0
2022-08-30T23:25:42.064Z,0
2022-08-30T23:27:21.811Z,0
2022-08-30T23:29:01.590Z,0
2022-08-30T23:30:41.355Z,0
2022-08-30T23:32:21.107Z,0
2022-08-30T23:34:00.879Z,0
2022-08-30T23:35:40.638Z,0
2022-08-30T23:37:20.409Z,0
2022-08-30T23:39:00.162Z,0
2022-08-30T23:40:39.936Z,0
2022-08-30T23:42:19.695Z,0
2022-08-30T23:43:59.451Z,0
2022-08-30T23:45:39.218Z,0
2022-08-30T23:47:18.992Z,0
2022-08-30T23:50:38.511Z,0
2022-08-30T23:52:18.288Z,0
2022-08-30T23:53:58.030Z,0
2022-08-30T23:55:37.798Z,0
2022-08-30T23:57:17.577Z,0
2022-08-30T23:58:57.337Z,0
